Main page
METAR-TAF:

METAR-TAF

Airports :

Bonriki International Airport

Tarawa, Kiribati

latitude: 01-21N, longitude: 172-55E, elevation: 2 m

Current weather observation

The report was made 12 minutes ago, at 00:00 UTC
Wind 8 kt from the South
Temperature 31°C
Humidity 66%
Pressure 1010 hPa
Visibility 10 km or more
Few clouds at a height of 1600 ft, Cumulonimbus.
Scattered clouds at a height of 1900 ft, Towering cumulus.
Broken clouds at a height of 30000 ft

METAR: NGTA 180000Z 19008KT 9999 FEW016CB SCT019TCU BKN300 31/24 Q1010 RMK CB TOP AT S

Time: 14:12 (00:12 UTC)

Forecast

The report was made 50 minutes ago, at 23:22 UTC
Forecast valid from 18 at 00 UTC to 18 at 24 UTC
Wind 8 kt from the South
Visibility 10 km or more
Few clouds at a height of 2000 ft
Scattered clouds at a height of 10000 ft

TAF: NGTA 172322Z 1800/1824 17008KT 9999 FEW020 SCT100

Weather observations and forecasts of more than 4000 airports (METAR and TAF reports).

The available stations are represented by yellow and red dots on the map.

Hover mouse over dot to see the name of the station.

Then click to see weather observations and forecasts.

To change the map : click on the green buttons with a black cross to zoom in, on the green button with a dash to zoom out, or on the green arrows for adjacent maps.


METAR-TAF: